Time;durP1;ratioP1;P1;durP2;ratioP2;P2;SDS_P1;SDS_P2;PMS_P1;PMS_P2;Temp;Humidity;BMP_temperature;BMP_pressure;BME280_temperature;BME280_humidity;BME280_pressure;Samples;Min_cycle;Max_cycle;Signal;HPM_P1;HPM_P2
2021/01/01 00:01:41;;;;;;;32.07;23.20;;;;;;;2.71;90.89;95495.13;5101341;28;20269;-72
2021/01/01 00:04:08;;;;;;;134.27;69.67;;;;;;;2.90;90.24;95499.34;5079069;28;20784;-72
2021/01/01 00:06:35;;;;;;;62.00;36.97;;;;;;;2.93;89.08;95499.75;5105249;28;20602;-72
2021/01/01 00:09:01;;;;;;;57.90;43.53;;;;;;;2.99;89.40;95502.50;5103022;28;20187;-72
2021/01/01 00:11:27;;;;;;;41.40;29.73;;;;;;;2.93;89.69;95499.75;5098808;28;20200;-72
2021/01/01 00:13:53;;;;;;;61.87;41.73;;;;;;;3.07;88.11;95486.69;5110479;28;20199;-72
2021/01/01 00:16:19;;;;;;;45.70;30.67;;;;;;;3.09;87.31;95485.47;5097315;28;20645;-71
2021/01/01 00:18:44;;;;;;;47.97;37.27;;;;;;;3.07;88.54;95492.66;5111517;28;20249;-72
2021/01/01 00:21:10;;;;;;;39.17;26.30;;;;;;;3.18;88.22;95493.75;5100334;28;20184;-73
2021/01/01 00:23:40;;;;;;;76.57;47.60;;;;;;;3.11;88.56;95486.06;5110712;28;20204;-72
2021/01/01 00:26:14;;;;;;;34.30;23.23;;;;;;;3.11;88.48;95487.88;5095993;28;20829;-72
2021/01/01 00:28:43;;;;;;;77.50;47.27;;;;;;;3.07;88.08;95484.09;5103888;28;20351;-72
2021/01/01 00:31:17;;;;;;;81.63;43.43;;;;;;;3.22;88.33;95487.16;5103614;28;20187;-71
2021/01/01 00:33:43;;;;;;;87.37;49.43;;;;;;;3.26;87.66;95490.91;5092262;28;20226;-72
2021/01/01 00:36:09;;;;;;;59.40;33.67;;;;;;;3.21;87.74;95486.38;5078302;28;20186;-72
2021/01/01 00:38:36;;;;;;;72.30;35.73;;;;;;;3.11;87.93;95496.44;5104621;28;20192;-72
2021/01/01 00:41:03;;;;;;;60.17;32.93;;;;;;;3.11;87.40;95491.25;5092344;28;20519;-72
2021/01/01 00:43:28;;;;;;;80.47;43.50;;;;;;;3.07;87.66;95499.63;5108500;28;20716;-71
2021/01/01 00:45:54;;;;;;;96.93;51.80;;;;;;;2.93;88.18;95497.16;5093793;28;20176;-71
2021/01/01 00:48:21;;;;;;;50.03;25.57;;;;;;;2.98;88.48;95495.72;5107564;28;20228;-72
2021/01/01 00:50:48;;;;;;;71.17;40.60;;;;;;;3.02;87.99;95497.66;5104472;28;20172;-71
2021/01/01 00:53:14;;;;;;;38.67;22.43;;;;;;;3.09;89.05;95500.22;5103035;28;20259;-72
2021/01/01 00:55:39;;;;;;;35.93;22.43;;;;;;;3.16;89.03;95501.75;5096909;28;20590;-72
2021/01/01 00:58:05;;;;;;;67.63;37.37;;;;;;;3.07;88.02;95505.59;5100125;28;20235;-72
2021/01/01 01:00:30;;;;;;;55.00;32.07;;;;;;;3.09;86.88;95505.38;5098721;28;20195;-72
2021/01/01 01:02:56;;;;;;;22.60;15.07;;;;;;;3.10;87.64;95506.97;5119155;28;20232;-72
2021/01/01 01:05:21;;;;;;;19.90;12.27;;;;;;;3.03;87.41;95509.63;5128222;28;20175;-72
2021/01/01 01:07:47;;;;;;;32.10;15.97;;;;;;;3.15;86.59;95514.91;5118928;28;20652;-71
2021/01/01 01:10:13;;;;;;;16.20;9.90;;;;;;;3.03;87.25;95514.00;5129160;28;20178;-72
2021/01/01 01:12:39;;;;;;;13.07;8.50;;;;;;;3.03;87.56;95524.34;5117045;28;20211;-72
2021/01/01 01:15:07;;;;;;;9.93;7.17;;;;;;;3.08;87.33;95525.31;5132491;28;20201;-72
2021/01/01 01:17:32;;;;;;;350.23;142.60;;;;;;;3.22;86.79;95526.00;5127817;27;20167;-72
2021/01/01 01:19:58;;;;;;;534.00;243.33;;;;;;;3.18;86.99;95530.78;5131563;27;20171;-72
2021/01/01 01:22:23;;;;;;;54.33;29.37;;;;;;;3.22;86.93;95529.38;5128662;27;20715;-72
2021/01/01 01:24:49;;;;;;;35.77;22.80;;;;;;;3.12;86.59;95536.81;5129249;27;20190;-71
2021/01/01 01:27:15;;;;;;;40.17;24.67;;;;;;;3.17;86.59;95543.97;5130470;27;20175;-72
2021/01/01 01:29:40;;;;;;;37.87;24.87;;;;;;;3.16;87.25;95545.75;5126201;27;20168;-72
2021/01/01 01:32:06;;;;;;;41.90;28.30;;;;;;;3.35;86.98;95552.56;5131039;27;20179;-72
2021/01/01 01:34:32;;;;;;;15.87;11.03;;;;;;;3.41;86.39;95552.72;5119564;27;20556;-72
2021/01/01 01:36:57;;;;;;;7.47;5.87;;;;;;;3.25;86.99;95554.06;5125167;27;20250;-72
2021/01/01 01:39:23;;;;;;;7.87;6.30;;;;;;;3.49;86.16;95553.25;5131108;27;20205;-72
2021/01/01 01:41:49;;;;;;;7.60;5.73;;;;;;;3.34;85.57;95547.63;5133675;27;20167;-71
2021/01/01 01:44:14;;;;;;;7.20;5.93;;;;;;;3.25;85.65;95547.06;5124275;27;20201;-72
2021/01/01 01:46:42;;;;;;;7.63;5.30;;;;;;;3.23;86.26;95554.25;5130337;27;20176;-72
2021/01/01 01:49:11;;;;;;;5.70;5.10;;;;;;;3.18;85.85;95554.09;5126139;27;20175;-72
2021/01/01 01:51:38;;;;;;;6.73;6.00;;;;;;;3.23;85.66;95561.25;5118403;27;20657;-72
2021/01/01 01:54:05;;;;;;;8.67;6.43;;;;;;;3.26;85.37;95566.00;5133564;27;20587;-72
2021/01/01 01:56:32;;;;;;;11.20;7.37;;;;;;;3.28;86.21;95561.41;5123150;27;20565;-73
2021/01/01 01:59:00;;;;;;;7.93;6.23;;;;;;;3.31;85.85;95571.34;5124521;27;20203;-73
2021/01/01 02:01:26;;;;;;;6.67;5.97;;;;;;;3.28;85.61;95564.78;5127058;27;20227;-72
2021/01/01 02:03:51;;;;;;;7.07;5.57;;;;;;;3.31;86.23;95566.16;5116992;27;20203;-73
2021/01/01 02:06:17;;;;;;;7.53;5.90;;;;;;;3.28;85.99;95566.59;5132393;27;20179;-72
2021/01/01 02:08:43;;;;;;;7.60;5.73;;;;;;;3.35;85.27;95567.31;5129737;27;20164;-73
2021/01/01 02:11:09;;;;;;;6.87;5.57;;;;;;;3.30;85.69;95567.94;5124197;27;20168;-72
2021/01/01 02:13:35;;;;;;;6.57;5.63;;;;;;;3.37;85.46;95572.28;5116942;27;20550;-72
2021/01/01 02:16:01;;;;;;;7.57;5.77;;;;;;;3.41;85.47;95576.81;5125644;27;20176;-73
2021/01/01 02:18:38;;;;;;;7.87;6.27;;;;;;;3.39;84.70;95584.03;5135510;27;20196;-73
2021/01/01 02:21:05;;;;;;;7.53;6.20;;;;;;;3.39;85.32;95583.22;5135827;27;20174;-73
2021/01/01 02:23:32;;;;;;;6.67;5.90;;;;;;;3.30;86.26;95582.69;5132976;27;20191;-72
2021/01/01 02:25:58;;;;;;;8.57;6.30;;;;;;;3.28;86.16;95579.53;5118589;27;20180;-72
2021/01/01 02:28:23;;;;;;;6.90;5.60;;;;;;;3.32;86.14;95580.69;5127285;27;20168;-72
2021/01/01 02:30:52;;;;;;;7.23;6.47;;;;;;;3.27;85.84;95589.09;5124575;27;20163;-71
2021/01/01 02:33:17;;;;;;;8.47;6.40;;;;;;;3.28;85.68;95585.50;5124924;27;20249;-72
2021/01/01 02:35:43;;;;;;;8.23;6.53;;;;;;;3.22;85.72;95588.13;5131180;27;20183;-72
2021/01/01 02:38:09;;;;;;;8.20;6.30;;;;;;;3.30;85.91;95598.22;5116466;27;20299;-72
2021/01/01 02:40:34;;;;;;;6.97;6.03;;;;;;;3.37;85.81;95591.22;5120946;27;20171;-72
2021/01/01 02:43:00;;;;;;;8.07;6.50;;;;;;;3.30;86.05;95598.22;5107901;28;20612;-73
2021/01/01 02:45:25;;;;;;;7.97;6.70;;;;;;;3.36;86.62;95597.38;5128899;27;20178;-73
2021/01/01 02:47:51;;;;;;;7.50;6.20;;;;;;;3.38;85.98;95597.19;5121882;27;20172;-71
2021/01/01 02:50:17;;;;;;;8.23;6.57;;;;;;;3.38;86.19;95597.19;5119004;27;20527;-72
2021/01/01 02:52:43;;;;;;;7.50;6.67;;;;;;;3.43;85.97;95597.34;5130792;27;20222;-72
2021/01/01 02:55:10;;;;;;;8.03;6.73;;;;;;;3.42;86.23;95601.72;5121675;27;20734;-72
2021/01/01 02:57:35;;;;;;;8.07;7.10;;;;;;;3.49;85.80;95605.06;5123915;27;20176;-73
2021/01/01 03:00:01;;;;;;;8.73;7.23;;;;;;;3.35;85.82;95596.59;5115065;27;20672;-72
2021/01/01 03:02:27;;;;;;;8.80;7.07;;;;;;;3.44;85.76;95599.72;5097224;28;20236;-72
2021/01/01 03:04:52;;;;;;;9.20;6.73;;;;;;;3.52;85.78;95604.63;5094475;28;20597;-71
2021/01/01 03:07:18;;;;;;;8.20;6.90;;;;;;;3.46;85.76;95602.88;5095745;28;20526;-72
2021/01/01 03:09:43;;;;;;;7.80;6.87;;;;;;;3.46;85.90;95604.69;5094553;28;20165;-72
2021/01/01 03:12:09;;;;;;;8.33;6.83;;;;;;;3.47;86.02;95601.09;5094444;28;20179;-72
2021/01/01 03:14:34;;;;;;;10.33;7.67;;;;;;;3.36;85.88;95607.75;5094815;28;20177;-72
2021/01/01 03:17:01;;;;;;;9.33;7.47;;;;;;;3.31;87.05;95603.19;5094191;28;20622;-72
2021/01/01 03:19:26;;;;;;;10.90;8.40;;;;;;;3.22;88.40;95606.25;5094556;28;20207;-72
2021/01/01 03:21:53;;;;;;;10.50;7.60;;;;;;;3.11;88.30;95602.56;5095049;28;20169;-71
2021/01/01 03:24:19;;;;;;;10.27;7.87;;;;;;;3.04;88.87;95603.59;5095212;28;20232;-72
2021/01/01 03:26:44;;;;;;;9.80;7.10;;;;;;;3.09;89.68;95608.94;5095427;28;20664;-72
2021/01/01 03:29:10;;;;;;;9.43;7.50;;;;;;;2.99;89.81;95609.38;5094427;28;20180;-71
2021/01/01 03:31:35;;;;;;;9.73;7.53;;;;;;;2.77;90.85;95611.50;5094052;28;20177;-71
2021/01/01 03:34:01;;;;;;;11.80;8.13;;;;;;;2.82;92.39;95614.25;5094448;28;20665;-73
2021/01/01 03:36:26;;;;;;;9.63;7.97;;;;;;;2.42;94.47;95608.47;5094662;28;20176;-72
2021/01/01 03:38:52;;;;;;;10.67;8.20;;;;;;;2.41;94.97;95608.66;5094549;28;20188;-69
2021/01/01 03:41:18;;;;;;;10.63;8.67;;;;;;;2.30;95.01;95604.13;5095300;28;20230;-70
2021/01/01 03:43:44;;;;;;;11.07;7.73;;;;;;;2.39;95.15;95613.25;5095073;28;20249;-70
2021/01/01 03:46:10;;;;;;;11.83;8.70;;;;;;;2.40;95.69;95609.66;5094784;28;20190;-71
2021/01/01 03:48:35;;;;;;;10.20;8.63;;;;;;;2.43;94.91;95607.47;5094302;28;20204;-71
2021/01/01 03:51:02;;;;;;;11.47;8.87;;;;;;;2.52;94.54;95613.19;5094141;28;20196;-73
2021/01/01 03:53:27;;;;;;;11.33;8.80;;;;;;;2.56;94.38;95613.59;5093416;28;20662;-71
2021/01/01 03:55:55;;;;;;;11.97;8.40;;;;;;;2.61;95.02;95611.97;5093596;28;20173;-70
2021/01/01 03:58:20;;;;;;;11.87;8.93;;;;;;;2.77;94.04;95618.47;5093830;28;20200;-71
2021/01/01 04:00:46;;;;;;;11.67;8.83;;;;;;;2.67;94.86;95607.78;5091057;28;20203;-70
2021/01/01 04:03:11;;;;;;;12.53;8.77;;;;;;;2.67;94.10;95608.56;5093381;28;20757;-72
2021/01/01 04:05:37;;;;;;;11.47;9.20;;;;;;;2.67;94.65;95605.97;5093961;28;20172;-71
2021/01/01 04:08:02;;;;;;;11.37;9.07;;;;;;;2.61;95.16;95611.19;5091559;28;20645;-71
2021/01/01 04:10:28;;;;;;;11.43;8.93;;;;;;;2.68;94.91;95607.53;5093738;28;20509;-71
2021/01/01 04:12:53;;;;;;;12.33;9.20;;;;;;;2.70;94.82;95602.97;5092729;28;20279;-70
2021/01/01 04:15:19;;;;;;;10.53;8.93;;;;;;;2.79;94.03;95601.72;5093550;28;20179;-71
2021/01/01 04:17:44;;;;;;;13.80;9.77;;;;;;;2.80;94.91;95603.31;5094182;28;20168;-71
2021/01/01 04:20:10;;;;;;;11.17;9.07;;;;;;;2.75;94.21;95604.94;5091700;28;21146;-72
2021/01/01 04:22:36;;;;;;;12.83;9.40;;;;;;;2.82;94.40;95608.28;5093279;28;20287;-71
2021/01/01 04:25:01;;;;;;;12.20;9.40;;;;;;;2.82;94.43;95605.69;5092732;28;20256;-71
2021/01/01 04:27:27;;;;;;;14.57;9.23;;;;;;;2.90;94.00;95606.22;5093659;28;20251;-71
2021/01/01 04:29:55;;;;;;;13.17;8.90;;;;;;;2.75;94.76;95605.72;5093135;28;20237;-70
2021/01/01 04:32:21;;;;;;;12.60;9.40;;;;;;;2.80;94.68;95615.44;5093065;28;20215;-71
2021/01/01 04:34:46;;;;;;;11.67;9.00;;;;;;;2.82;94.25;95618.63;5094385;28;20553;-72
2021/01/01 04:37:12;;;;;;;12.07;8.93;;;;;;;2.83;94.89;95615.06;5092680;28;20180;-72
2021/01/01 04:39:37;;;;;;;13.93;9.77;;;;;;;2.83;94.15;95613.25;5092004;28;20196;-71
2021/01/01 04:42:04;;;;;;;12.90;9.70;;;;;;;2.79;94.57;95613.84;5092037;28;20180;-71
2021/01/01 04:44:30;;;;;;;13.10;10.00;;;;;;;2.74;95.05;95609.31;5093136;28;20200;-71
2021/01/01 04:46:56;;;;;;;13.83;9.77;;;;;;;2.68;95.20;95612.72;5092435;28;20173;-70
2021/01/01 04:49:22;;;;;;;13.40;9.27;;;;;;;2.59;94.55;95616.53;5093308;28;20176;-71
2021/01/01 04:51:48;;;;;;;12.47;8.87;;;;;;;2.56;94.75;95621.34;5092505;28;20194;-72
2021/01/01 04:54:16;;;;;;;12.83;9.17;;;;;;;2.64;94.38;95621.91;5092974;28;20222;-71
2021/01/01 04:56:49;;;;;;;12.83;9.90;;;;;;;2.70;94.39;95623.66;5093113;28;20175;-71
2021/01/01 04:59:17;;;;;;;15.53;10.27;;;;;;;2.69;94.86;95626.44;5092151;28;20784;-71
2021/01/01 05:01:46;;;;;;;16.93;10.90;;;;;;;2.71;95.63;95627.03;5090386;28;20228;-71
2021/01/01 05:04:12;;;;;;;12.60;9.80;;;;;;;2.65;95.88;95622.69;5092462;28;20209;-71
2021/01/01 05:06:42;;;;;;;14.70;10.17;;;;;;;2.49;96.37;95623.94;5093538;28;20251;-71
2021/01/01 05:09:10;;;;;;;13.80;9.90;;;;;;;2.29;97.65;95620.63;5092976;28;20160;-72
2021/01/01 05:11:36;;;;;;;14.17;9.33;;;;;;;2.46;97.52;95632.09;5093486;28;20692;-71
2021/01/01 05:14:03;;;;;;;15.03;10.60;;;;;;;2.49;97.17;95629.91;5093051;28;20200;-71
2021/01/01 05:16:29;;;;;;;15.80;9.67;;;;;;;2.37;96.54;95628.16;5093946;28;20172;-71
2021/01/01 05:19:12;;;;;;;12.90;9.77;;;;;;;2.55;96.96;95624.94;5093408;28;20197;-74
2021/01/01 05:21:37;;;;;;;12.87;9.47;;;;;;;2.57;96.74;95630.66;5092764;28;20179;-71
2021/01/01 05:24:07;;;;;;;17.73;10.37;;;;;;;2.63;97.01;95633.22;5092277;28;20204;-71
2021/01/01 05:26:33;;;;;;;13.00;9.40;;;;;;;2.64;95.34;95629.66;5092245;28;20187;-71
2021/01/01 05:29:05;;;;;;;12.90;9.57;;;;;;;2.68;95.46;95635.19;5091610;28;20164;-71
2021/01/01 05:31:33;;;;;;;14.03;9.43;;;;;;;2.65;95.60;95643.38;5092184;28;20193;-71
2021/01/01 05:34:07;;;;;;;13.37;8.97;;;;;;;2.68;95.62;95642.97;5091977;28;20205;-72
2021/01/01 05:36:37;;;;;;;13.63;9.37;;;;;;;2.73;95.04;95641.34;5092772;28;20171;-71
2021/01/01 05:39:22;;;;;;;13.67;10.20;;;;;;;2.78;95.75;95643.34;5090948;28;20211;-71
2021/01/01 05:41:49;;;;;;;13.67;9.77;;;;;;;2.71;96.17;95645.16;5091596;28;20550;-71
2021/01/01 05:44:25;;;;;;;12.63;9.37;;;;;;;2.84;94.89;95648.47;5091826;28;20219;-71
2021/01/01 05:46:57;;;;;;;14.77;10.23;;;;;;;2.81;94.38;95650.69;5093143;28;20184;-71
2021/01/01 05:49:27;;;;;;;14.60;9.77;;;;;;;2.65;95.24;95651.13;5092389;28;20555;-71
2021/01/01 05:52:19;;;;;;;13.53;10.07;;;;;;;2.62;95.98;95659.31;5092389;28;20184;-71
2021/01/01 05:54:50;;;;;;;12.80;9.27;;;;;;;2.66;95.25;95655.31;5090780;28;20180;-71
2021/01/01 05:57:19;;;;;;;16.60;10.27;;;;;;;2.57;94.70;95664.28;5092232;28;20184;-71
2021/01/01 05:59:48;;;;;;;15.03;10.53;;;;;;;2.42;96.86;95667.13;5092511;28;20295;-72
2021/01/01 06:02:14;;;;;;;14.77;10.43;;;;;;;2.59;95.89;95659.72;5090088;28;20318;-71
2021/01/01 06:04:40;;;;;;;13.63;10.37;;;;;;;2.63;96.63;95664.28;5096498;28;20188;-71
2021/01/01 06:07:11;;;;;;;14.70;9.97;;;;;;;2.59;97.40;95663.09;5095889;28;20314;-71
2021/01/01 06:09:38;;;;;;;13.53;10.13;;;;;;;2.71;97.46;95665.84;5097099;28;20218;-71
2021/01/01 06:12:05;;;;;;;14.40;10.27;;;;;;;2.76;97.14;95673.78;5095961;28;20172;-71
2021/01/01 06:14:59;;;;;;;14.50;10.27;;;;;;;2.79;97.11;95675.94;5096484;28;20204;-71
2021/01/01 06:17:37;;;;;;;14.27;10.17;;;;;;;2.69;97.03;95678.97;5097169;28;20259;-71
2021/01/01 06:20:05;;;;;;;14.77;10.30;;;;;;;2.68;96.68;95682.56;5095997;28;20168;-71
2021/01/01 06:22:31;;;;;;;16.03;10.73;;;;;;;2.72;96.68;95686.34;5096693;28;20678;-71
2021/01/01 06:25:00;;;;;;;15.67;10.87;;;;;;;2.65;96.51;95688.16;5096128;28;20187;-72
2021/01/01 06:27:30;;;;;;;15.43;10.93;;;;;;;2.51;97.67;95691.75;5094565;28;20565;-71
2021/01/01 06:30:11;;;;;;;12.73;8.20;;;;;;;2.38;95.89;95699.56;5096495;28;20225;-71
2021/01/01 06:32:38;;;;;;;11.13;8.10;;;;;;;2.21;97.37;95698.41;5095967;28;20258;-71
2021/01/01 06:35:12;;;;;;;11.87;8.23;;;;;;;2.33;98.06;95707.94;5093758;28;20169;-71
2021/01/01 06:37:59;;;;;;;8.10;6.60;;;;;;;2.26;97.53;95711.50;5093197;28;20183;-72
2021/01/01 06:40:25;;;;;;;9.50;7.07;;;;;;;2.17;97.19;95710.13;5094345;28;20524;-67
2021/01/01 06:43:09;;;;;;;7.57;6.43;;;;;;;2.13;97.56;95716.69;5093119;28;20274;-68
2021/01/01 06:45:45;;;;;;;8.13;6.30;;;;;;;1.96;97.71;95711.91;5092126;28;20690;-70
2021/01/01 06:48:28;;;;;;;9.63;7.23;;;;;;;2.04;97.15;95718.69;5093722;28;20179;-69
2021/01/01 06:50:54;;;;;;;7.70;6.40;;;;;;;2.11;96.72;95729.03;5094693;28;20196;-74
2021/01/01 06:53:30;;;;;;;8.47;7.03;;;;;;;2.11;97.15;95732.41;5094298;28;20208;-69
2021/01/01 06:56:09;;;;;;;7.80;6.53;;;;;;;2.22;96.79;95738.75;5094153;28;20233;-68
2021/01/01 06:58:35;;;;;;;8.17;6.50;;;;;;;2.30;95.56;95729.00;5094449;28;20545;-67
2021/01/01 07:01:02;;;;;;;9.30;7.40;;;;;;;2.22;95.28;95733.59;5090658;28;20261;-67
2021/01/01 07:03:34;;;;;;;8.13;6.20;;;;;;;2.25;96.57;95738.34;5093895;28;20252;-67
2021/01/01 07:06:03;;;;;;;8.43;6.40;;;;;;;2.26;96.12;95734.78;5093829;28;20568;-66
2021/01/01 07:08:41;;;;;;;11.03;6.10;;;;;;;2.28;95.78;95731.00;5094493;28;20165;-69
2021/01/01 07:11:07;;;;;;;8.03;6.43;;;;;;;2.33;94.92;95738.94;5093924;28;20187;-71
2021/01/01 07:13:43;;;;;;;8.60;6.10;;;;;;;2.00;95.37;95745.94;5094287;28;20200;-68
2021/01/01 07:16:09;;;;;;;6.97;5.83;;;;;;;2.09;95.80;95742.94;5093535;28;20172;-64
2021/01/01 07:18:34;;;;;;;7.27;6.10;;;;;;;2.16;96.12;95749.91;5094041;28;20204;-64
2021/01/01 07:21:01;;;;;;;7.10;6.07;;;;;;;2.15;96.80;95750.88;5093188;28;20177;-63
2021/01/01 07:23:30;;;;;;;7.53;5.80;;;;;;;2.21;95.98;95750.88;5093606;28;20726;-64
2021/01/01 07:25:55;;;;;;;5.73;5.03;;;;;;;2.11;96.25;95755.66;5093700;28;20173;-64
2021/01/01 07:28:25;;;;;;;7.80;5.60;;;;;;;2.03;96.62;95761.03;5093170;28;20221;-64
2021/01/01 07:30:51;;;;;;;6.13;5.53;;;;;;;2.20;95.67;95758.84;5093405;28;20212;-63
2021/01/01 07:33:21;;;;;;;7.03;5.37;;;;;;;2.27;95.45;95770.78;5092857;28;20196;-65
2021/01/01 07:35:57;;;;;;;6.53;5.13;;;;;;;2.25;94.93;95774.53;5093253;28;20188;-63
2021/01/01 07:38:24;;;;;;;5.17;4.53;;;;;;;2.14;94.71;95770.75;5091456;28;20566;-63
2021/01/01 07:40:51;;;;;;;6.83;4.83;;;;;;;2.16;95.29;95783.50;5093336;28;20237;-62
2021/01/01 07:43:17;;;;;;;6.53;5.20;;;;;;;2.30;94.36;95785.88;5092732;28;20724;-62
2021/01/01 07:45:43;;;;;;;5.93;4.93;;;;;;;2.13;93.97;95783.88;5092347;28;20577;-63
2021/01/01 07:48:09;;;;;;;5.87;4.97;;;;;;;2.00;95.21;95785.47;5092742;28;20226;-63
2021/01/01 07:50:36;;;;;;;6.50;5.33;;;;;;;2.02;95.65;95787.84;5092752;28;20175;-63
2021/01/01 07:53:12;;;;;;;6.77;5.37;;;;;;;2.05;95.89;95784.88;5091863;28;20200;-63
2021/01/01 07:55:39;;;;;;;7.40;5.50;;;;;;;2.21;95.00;95784.50;5092424;28;20181;-64
2021/01/01 07:58:08;;;;;;;6.73;5.23;;;;;;;2.24;94.05;95784.06;5091765;28;20204;-63
2021/01/01 08:03:00;;;;;;;6.90;5.23;;;;;;;2.28;93.88;95792.25;5123594;27;20280;-63
2021/01/01 08:05:26;;;;;;;5.93;4.83;;;;;;;2.33;94.06;95798.41;5117431;27;20184;-63
2021/01/01 08:07:52;;;;;;;5.40;4.60;;;;;;;2.25;93.61;95803.78;5112325;27;20172;-64
2021/01/01 08:10:33;;;;;;;5.03;4.53;;;;;;;2.38;93.05;95805.56;5093249;27;20267;-65
2021/01/01 08:12:59;;;;;;;4.80;4.30;;;;;;;2.41;93.37;95805.16;5117650;27;20282;-64
2021/01/01 08:15:30;;;;;;;4.80;4.30;;;;;;;2.47;93.65;95812.13;5124192;27;20267;-64
2021/01/01 08:18:08;;;;;;;5.40;4.70;;;;;;;2.37;92.55;95809.16;5119453;27;20203;-64
2021/01/01 08:20:33;;;;;;;4.87;4.37;;;;;;;2.25;92.84;95816.69;5128124;27;20178;-66
2021/01/01 08:23:09;;;;;;;4.97;4.03;;;;;;;2.36;91.72;95816.09;5116890;27;20252;-64
2021/01/01 08:25:35;;;;;;;4.30;3.90;;;;;;;2.48;90.76;95814.50;5119375;27;20175;-62
2021/01/01 08:28:07;;;;;;;4.80;4.30;;;;;;;2.45;90.76;95814.13;5117728;27;20178;-66
2021/01/01 08:30:36;;;;;;;5.77;4.53;;;;;;;2.56;90.40;95821.28;5121632;27;20555;-64
2021/01/01 08:33:04;;;;;;;4.23;3.80;;;;;;;2.28;90.27;95823.28;5114752;27;20718;-63
2021/01/01 08:35:30;;;;;;;5.73;4.43;;;;;;;2.36;91.33;95828.22;5117334;27;20192;-63
2021/01/01 08:37:55;;;;;;;4.97;4.33;;;;;;;2.48;90.62;95834.41;5117515;27;20175;-65
2021/01/01 08:40:22;;;;;;;5.13;4.10;;;;;;;2.55;91.37;95834.41;5118048;27;20187;-58
2021/01/01 08:42:53;;;;;;;4.97;4.47;;;;;;;2.67;91.05;95843.16;5123151;27;20202;-65
2021/01/01 08:45:19;;;;;;;4.43;3.80;;;;;;;2.72;90.56;95849.31;5115943;27;20199;-65
2021/01/01 08:47:48;;;;;;;4.17;3.80;;;;;;;2.72;90.45;95845.94;5122244;27;20239;-64
2021/01/01 08:50:24;;;;;;;4.53;4.13;;;;;;;2.72;90.13;95841.56;5115142;27;20182;-65
2021/01/01 08:53:10;;;;;;;8.03;5.00;;;;;;;2.79;89.45;95846.69;5118598;27;20207;-64
2021/01/01 08:55:36;;;;;;;5.47;4.47;;;;;;;2.79;90.45;95847.50;5117270;27;20179;-64
2021/01/01 08:58:15;;;;;;;4.23;3.80;;;;;;;2.89;88.03;95850.50;5124348;27;20260;-68
2021/01/01 09:00:46;;;;;;;4.30;3.90;;;;;;;2.90;89.21;95846.09;5118326;27;20286;-67
2021/01/01 09:03:20;;;;;;;4.20;3.80;;;;;;;2.85;88.16;95854.47;5104777;28;20208;-64
2021/01/01 09:05:51;;;;;;;4.20;3.80;;;;;;;2.90;89.02;95859.81;5093730;28;20797;-65
2021/01/01 09:08:20;;;;;;;4.23;3.83;;;;;;;2.90;87.73;95861.63;5085287;28;20206;-64
2021/01/01 09:10:48;;;;;;;4.10;3.70;;;;;;;2.88;87.93;95856.66;5101601;28;20539;-63
2021/01/01 09:13:18;;;;;;;3.77;3.47;;;;;;;2.92;87.09;95851.88;5073506;28;20216;-64
2021/01/01 09:15:44;;;;;;;4.23;3.83;;;;;;;2.99;87.10;95857.84;5090975;28;20165;-65
2021/01/01 09:18:10;;;;;;;6.97;5.03;;;;;;;2.84;88.25;95858.03;5094648;28;20602;-64
2021/01/01 09:20:40;;;;;;;3.50;3.20;;;;;;;2.79;88.13;95857.84;5101206;28;20172;-64
2021/01/01 09:23:07;;;;;;;8.00;7.10;;;;;;;2.87;88.80;95859.44;5071569;28;20212;-64
2021/01/01 09:25:33;;;;;;;4.10;3.70;;;;;;;2.92;88.58;95862.22;5104826;28;20172;-65
2021/01/01 09:27:59;;;;;;;17.43;13.70;;;;;;;3.05;87.56;95867.38;5104512;28;20179;-65
2021/01/01 09:30:27;;;;;;;4.23;3.77;;;;;;;3.07;87.09;95865.38;5100964;28;20176;-66
2021/01/01 09:33:00;;;;;;;4.77;4.27;;;;;;;3.15;87.46;95867.75;5091388;28;20258;-65
2021/01/01 09:35:27;;;;;;;3.67;3.30;;;;;;;3.23;87.85;95874.53;5100108;28;20176;-64
2021/01/01 09:38:05;;;;;;;2.83;2.47;;;;;;;3.20;85.14;95875.72;5103384;28;20180;-64
2021/01/01 09:40:32;;;;;;;2.60;2.40;;;;;;;3.19;86.00;95873.31;5111110;28;20193;-65
2021/01/01 09:43:02;;;;;;;2.47;2.27;;;;;;;3.25;84.66;95878.47;5104763;28;20310;-65
2021/01/01 09:45:28;;;;;;;2.57;2.37;;;;;;;3.29;83.73;95887.44;5106961;28;20250;-67
2021/01/01 09:47:53;;;;;;;2.67;2.47;;;;;;;3.27;84.89;95881.69;5107684;28;20751;-63
2021/01/01 09:50:19;;;;;;;2.63;2.43;;;;;;;3.40;83.75;95882.66;5097130;28;20225;-64
2021/01/01 09:52:44;;;;;;;2.77;2.57;;;;;;;3.37;82.70;95881.25;5099214;28;20207;-63
2021/01/01 09:55:10;;;;;;;2.97;2.67;;;;;;;3.52;83.58;95884.38;5103377;28;20271;-66
2021/01/01 09:57:40;;;;;;;2.90;2.70;;;;;;;3.55;82.88;95881.41;5099470;28;20559;-64
2021/01/01 10:00:08;;;;;;;3.37;3.07;;;;;;;3.75;82.51;95876.91;5109532;28;20258;-62
2021/01/01 10:02:34;;;;;;;4.00;3.60;;;;;;;3.78;82.24;95885.28;5110746;27;20238;-63
2021/01/01 10:04:59;;;;;;;3.53;3.23;;;;;;;3.87;83.10;95884.84;5120854;27;20180;-63
2021/01/01 10:07:27;;;;;;;3.00;2.70;;;;;;;3.82;81.18;95883.88;5128360;27;20168;-65
2021/01/01 10:09:53;;;;;;;2.50;2.30;;;;;;;3.71;80.63;95895.69;5125754;27;20195;-67
2021/01/01 10:12:19;;;;;;;2.77;2.57;;;;;;;3.83;81.30;95888.84;5133441;27;20194;-62
2021/01/01 10:14:45;;;;;;;3.57;3.00;;;;;;;3.88;82.18;95888.22;5126052;27;20220;-63
2021/01/01 10:17:10;;;;;;;2.67;2.47;;;;;;;3.87;79.54;95894.41;5118663;27;20629;-64
2021/01/01 10:19:40;;;;;;;3.00;2.70;;;;;;;3.81;81.03;95890.84;5127314;27;20194;-65
2021/01/01 10:22:07;;;;;;;2.80;2.60;;;;;;;3.70;80.56;95897.47;5122830;27;20251;-72
2021/01/01 10:24:33;;;;;;;2.93;2.67;;;;;;;3.45;79.41;95891.41;5132428;27;20271;-68
2021/01/01 10:26:58;;;;;;;2.70;2.50;;;;;;;3.52;81.70;95888.75;5128293;27;20633;-65
2021/01/01 10:29:23;;;;;;;3.27;2.70;;;;;;;3.70;81.73;95894.88;5119527;27;20191;-64
2021/01/01 10:31:49;;;;;;;2.60;2.27;;;;;;;3.83;80.29;95888.84;5117222;27;20184;-64
2021/01/01 10:34:15;;;;;;;2.87;2.67;;;;;;;3.92;80.01;95892.78;5118787;27;20274;-64
2021/01/01 10:36:40;;;;;;;2.57;2.37;;;;;;;3.85;78.51;95892.03;5131428;27;20198;-65
2021/01/01 10:39:07;;;;;;;2.90;2.60;;;;;;;3.88;78.86;95885.66;5122365;27;20188;-63
2021/01/01 10:41:33;;;;;;;2.70;2.50;;;;;;;3.76;78.26;95883.69;5130328;27;20259;-65
2021/01/01 10:43:59;;;;;;;2.50;2.30;;;;;;;3.81;78.87;95882.28;5115162;27;20231;-66
2021/01/01 10:46:24;;;;;;;2.90;2.70;;;;;;;3.58;78.72;95883.56;5119836;27;20170;-65
2021/01/01 10:48:50;;;;;;;2.70;2.50;;;;;;;3.73;80.03;95891.88;5130648;27;20692;-65
2021/01/01 10:51:23;;;;;;;2.50;2.30;;;;;;;3.91;80.29;95885.22;5128133;27;20171;-66
2021/01/01 10:53:49;;;;;;;2.57;2.37;;;;;;;3.83;79.95;95888.06;5120853;27;20618;-63
2021/01/01 10:56:25;;;;;;;2.27;2.10;;;;;;;3.96;81.42;95890.56;5121129;27;20199;-63
2021/01/01 10:58:51;;;;;;;4.07;3.00;;;;;;;4.02;79.67;95885.34;5119705;27;20196;-64
2021/01/01 11:01:24;;;;;;;2.70;2.50;;;;;;;4.06;79.57;95883.97;5106519;27;20224;-64
2021/01/01 11:03:50;;;;;;;2.97;2.77;;;;;;;4.19;78.44;95877.88;5107910;28;20231;-65
2021/01/01 11:06:17;;;;;;;2.70;2.50;;;;;;;4.24;77.10;95877.25;5103453;28;20169;-65
2021/01/01 11:08:43;;;;;;;2.60;2.40;;;;;;;4.13;77.64;95882.09;5098286;28;20179;-65
2021/01/01 11:11:11;;;;;;;2.93;2.63;;;;;;;4.16;78.04;95880.91;5096003;28;20176;-63
2021/01/01 11:13:51;;;;;;;2.90;2.70;;;;;;;4.19;76.33;95876.09;5092635;28;20193;-64
2021/01/01 12:19:57;;;;;;;2.70;2.50;;;;;;;4.72;74.32;95849.78;5123797;27;20233;-68
2021/01/01 12:24:47;;;;;;;3.27;2.97;;;;;;;4.84;73.05;95839.50;5114133;27;20195;-65
2021/01/01 12:27:24;;;;;;;2.50;2.30;;;;;;;4.34;73.26;95846.50;5122888;27;20176;-64
2021/01/01 12:29:51;;;;;;;3.03;2.70;;;;;;;4.46;73.64;95847.38;5117277;27;20578;-67
2021/01/01 12:32:19;;;;;;;2.60;2.40;;;;;;;4.25;73.01;95845.13;5120694;27;20189;-65
2021/01/01 12:34:44;;;;;;;2.63;2.43;;;;;;;4.30;71.66;95846.09;5114055;27;20237;-66
2021/01/01 12:37:10;;;;;;;3.63;2.63;;;;;;;4.05;73.60;95845.28;5121570;27;20589;-65
2021/01/01 12:39:36;;;;;;;3.17;2.87;;;;;;;4.04;74.93;95839.28;5099453;28;20233;-66
2021/01/01 12:42:03;;;;;;;2.50;2.30;;;;;;;4.19;73.89;95844.97;5117500;27;20203;-66
2021/01/01 12:44:32;;;;;;;2.57;2.33;;;;;;;4.20;72.54;95848.38;5122591;27;20861;-66
2021/01/01 12:47:01;;;;;;;2.50;2.30;;;;;;;4.12;72.66;95852.00;5124219;27;20202;-66
2021/01/01 12:49:26;;;;;;;3.37;2.37;;;;;;;4.08;72.87;95857.81;5118694;27;20172;-65